createdAt,value
2018-12-31T00:00:48.995Z,-3.16
2018-12-31T00:03:31.898Z,-3.14
2018-12-31T00:06:02.636Z,-3.02
2018-12-31T00:08:33.506Z,-2.76
2018-12-31T00:11:05.894Z,-2.78
2018-12-31T00:13:39.800Z,-2.64
2018-12-31T00:16:10.976Z,-2.47
2018-12-31T00:18:44.806Z,-3.00
2018-12-31T00:21:15.921Z,-2.22
2018-12-31T00:23:46.639Z,-2.09
2018-12-31T00:26:24.498Z,-2.00
2018-12-31T00:28:55.587Z,-1.93
2018-12-31T00:31:29.001Z,-1.91
2018-12-31T00:33:59.724Z,-1.96
2018-12-31T00:36:30.914Z,-1.84
2018-12-31T00:39:04.147Z,-1.78
2018-12-31T00:41:34.791Z,-1.88
2018-12-31T00:44:05.497Z,-1.88
2018-12-31T00:46:38.824Z,-1.97
2018-12-31T00:49:10.375Z,-1.82
2018-12-31T00:51:45.058Z,-1.80
2018-12-31T00:54:15.874Z,-1.85
2018-12-31T00:56:47.414Z,-1.79
2018-12-31T00:59:18.915Z,-1.87
2018-12-31T01:01:49.652Z,-1.77
2018-12-31T01:04:20.541Z,-1.58
2018-12-31T01:06:54.635Z,-1.61
2018-12-31T01:09:27.004Z,-1.59
2018-12-31T01:11:58.633Z,-1.57
2018-12-31T01:14:29.334Z,-1.63
2018-12-31T01:17:00.379Z,-1.38
2018-12-31T01:19:31.184Z,-1.57
2018-12-31T01:22:01.231Z,-1.60
2018-12-31T01:24:32.074Z,-1.59
2018-12-31T01:27:02.982Z,-1.43
2018-12-31T01:29:34.269Z,-1.52
2018-12-31T01:32:07.413Z,-1.38
2018-12-31T01:34:44.310Z,-1.40
2018-12-31T01:37:19.078Z,-1.59
2018-12-31T01:39:53.569Z,-1.67
2018-12-31T01:42:25.385Z,-1.69
2018-12-31T01:44:56.159Z,-1.68
2018-12-31T01:47:33.227Z,-2.19
2018-12-31T01:50:07.554Z,-1.96
2018-12-31T01:52:38.869Z,-2.11
2018-12-31T01:55:09.926Z,-2.24
2018-12-31T01:57:40.877Z,-2.29
2018-12-31T02:00:11.628Z,-2.39
2018-12-31T02:02:43.861Z,-2.53
2018-12-31T02:05:15.364Z,-2.87
2018-12-31T02:07:48.580Z,-2.65
2018-12-31T02:10:20.075Z,-3.17
2018-12-31T02:12:53.615Z,-2.67
2018-12-31T02:15:24.441Z,-2.60
2018-12-31T02:17:57.711Z,-2.54
2018-12-31T02:20:31.505Z,-2.76
2018-12-31T02:23:02.145Z,-2.86
2018-12-31T02:25:32.765Z,-3.02
2018-12-31T02:28:06.680Z,-3.30
2018-12-31T02:30:37.318Z,-3.50
2018-12-31T02:33:10.810Z,-3.51
2018-12-31T02:35:42.099Z,-3.68
2018-12-31T02:38:13.302Z,-3.71
2018-12-31T02:40:44.390Z,-4.06
2018-12-31T02:43:15.574Z,-3.67
2018-12-31T02:45:46.467Z,-3.95
2018-12-31T02:48:17.141Z,-4.26
2018-12-31T02:50:49.472Z,-4.16
2018-12-31T02:53:20.697Z,-4.13
2018-12-31T02:55:52.406Z,-4.25
2018-12-31T02:58:23.635Z,-4.24
2018-12-31T03:00:54.360Z,-4.25
2018-12-31T03:03:25.191Z,-4.30
2018-12-31T03:06:00.852Z,-4.42
2018-12-31T03:08:31.489Z,-4.52
2018-12-31T03:11:02.241Z,-4.79
2018-12-31T03:13:35.124Z,-4.99
2018-12-31T03:16:05.872Z,-5.06
2018-12-31T03:18:40.575Z,-5.20
2018-12-31T03:21:12.230Z,-5.37
2018-12-31T03:23:44.517Z,-5.33
2018-12-31T03:26:18.545Z,-5.16
2018-12-31T03:28:49.505Z,-5.86
2018-12-31T03:31:25.816Z,-5.44
2018-12-31T03:33:55.308Z,-5.68
2018-12-31T03:36:31.475Z,-5.77
2018-12-31T03:39:02.236Z,-5.90
2018-12-31T03:41:35.171Z,-6.04
2018-12-31T03:44:06.527Z,-5.89
2018-12-31T03:46:42.296Z,-5.96
2018-12-31T03:49:23.544Z,-6.17
2018-12-31T03:51:55.961Z,-6.27
2018-12-31T03:54:26.604Z,-6.23
2018-12-31T03:57:01.671Z,-6.13
2018-12-31T03:59:33.736Z,-6.11
2018-12-31T04:02:04.839Z,-6.29
2018-12-31T04:04:35.988Z,-6.37
2018-12-31T04:07:10.089Z,-6.42
2018-12-31T04:09:41.106Z,-6.43
2018-12-31T04:12:13.663Z,-6.56
2018-12-31T04:14:49.050Z,-6.35
2018-12-31T04:17:19.846Z,-6.49
2018-12-31T04:19:50.328Z,-6.57
2018-12-31T04:22:22.787Z,-6.61
2018-12-31T04:24:57.119Z,-6.69
2018-12-31T04:27:28.121Z,-6.64
2018-12-31T04:30:00.777Z,-6.42
2018-12-31T04:32:31.261Z,-6.36
2018-12-31T04:35:01.748Z,-6.62
2018-12-31T04:37:32.575Z,-6.54
2018-12-31T04:40:03.225Z,-6.25
2018-12-31T04:42:34.703Z,-6.09
2018-12-31T04:45:09.395Z,-6.11
2018-12-31T04:47:40.836Z,-6.03
2018-12-31T04:50:14.967Z,-6.14
2018-12-31T04:52:45.903Z,-6.37
2018-12-31T04:55:16.947Z,-6.59
2018-12-31T04:57:51.293Z,-6.73
2018-12-31T05:00:21.993Z,-6.83
2018-12-31T05:02:54.579Z,-6.96
2018-12-31T05:05:25.544Z,-7.04
2018-12-31T05:07:56.775Z,-7.11
2018-12-31T05:10:29.900Z,-7.29
2018-12-31T05:13:01.508Z,-7.39
2018-12-31T05:15:32.282Z,-7.40
2018-12-31T05:18:03.337Z,-7.12
2018-12-31T05:20:34.112Z,-6.93
2018-12-31T05:23:05.432Z,-6.93
2018-12-31T05:25:37.158Z,-7.07
2018-12-31T05:28:08.816Z,-7.28
2018-12-31T05:30:39.549Z,-7.00
2018-12-31T05:33:10.706Z,-6.96
2018-12-31T05:35:43.168Z,-7.06
2018-12-31T05:38:15.552Z,-7.32
2018-12-31T05:40:47.603Z,-7.45
2018-12-31T05:43:18.623Z,-7.49
2018-12-31T05:45:49.759Z,-7.55
2018-12-31T05:48:21.956Z,-7.51
2018-12-31T05:50:54.091Z,-7.65
2018-12-31T05:53:25.639Z,-7.66
2018-12-31T05:55:59.279Z,-7.77
2018-12-31T05:58:30.097Z,-7.83
2018-12-31T06:01:01.756Z,-7.87
2018-12-31T06:03:32.870Z,-7.84
2018-12-31T06:06:03.677Z,-7.73
2018-12-31T06:08:34.925Z,-7.89
2018-12-31T06:11:08.501Z,-7.94
2018-12-31T06:13:39.916Z,-8.02
2018-12-31T06:16:10.495Z,-8.00
2018-12-31T06:18:42.882Z,-7.84
2018-12-31T06:21:16.251Z,-7.66
2018-12-31T06:23:46.793Z,-7.61
2018-12-31T06:26:20.960Z,-7.61
2018-12-31T06:28:52.304Z,-7.78
2018-12-31T06:31:22.993Z,-7.94
2018-12-31T06:33:53.841Z,-7.92
2018-12-31T06:36:26.047Z,-7.69
2018-12-31T06:38:56.794Z,-7.61
2018-12-31T06:41:27.913Z,-7.53
2018-12-31T06:44:03.523Z,-7.61
2018-12-31T06:46:34.516Z,-7.46
2018-12-31T06:49:05.552Z,-7.34
2018-12-31T06:51:39.171Z,-7.22
2018-12-31T06:54:11.729Z,-6.99
2018-12-31T06:56:42.380Z,-6.98
2018-12-31T06:59:13.509Z,-6.85
2018-12-31T07:01:44.439Z,-6.84
2018-12-31T07:04:15.006Z,-6.84
2018-12-31T07:06:45.418Z,-6.79
2018-12-31T07:09:16.598Z,-6.78
2018-12-31T07:11:49.298Z,-6.85
2018-12-31T07:14:19.938Z,-6.82
2018-12-31T07:16:50.564Z,-6.80
2018-12-31T07:19:21.596Z,-6.72
2018-12-31T07:21:55.197Z,-6.47
2018-12-31T07:24:28.446Z,-6.46
2018-12-31T07:26:58.609Z,-6.45
2018-12-31T07:29:30.620Z,-6.40
2018-12-31T07:32:16.525Z,-6.25
2018-12-31T07:34:51.488Z,-6.11
2018-12-31T07:37:26.723Z,-6.54
2018-12-31T07:40:01.155Z,-5.65
2018-12-31T07:42:33.316Z,-5.54
2018-12-31T07:45:06.895Z,-5.46
2018-12-31T07:47:41.856Z,-5.24
2018-12-31T07:50:15.293Z,-5.19
2018-12-31T07:52:49.945Z,-5.15
2018-12-31T07:55:21.654Z,-5.09
2018-12-31T07:58:01.441Z,-5.00
2018-12-31T08:00:33.849Z,-4.94
2018-12-31T08:03:10.330Z,-4.98
2018-12-31T08:05:43.843Z,-4.94
2018-12-31T08:08:19.602Z,-4.64
2018-12-31T08:10:58.870Z,-4.64
2018-12-31T08:13:31.436Z,-4.54
2018-12-31T08:16:03.010Z,-4.29
2018-12-31T08:18:35.514Z,-4.22
2018-12-31T08:21:07.803Z,-4.22
2018-12-31T08:23:38.736Z,-4.10
2018-12-31T08:26:09.896Z,-3.97
2018-12-31T08:28:43.087Z,-3.76
2018-12-31T08:31:16.289Z,-3.64
2018-12-31T08:33:48.395Z,-3.52
2018-12-31T08:36:22.795Z,-3.53
2018-12-31T08:39:00.654Z,-3.54
2018-12-31T08:41:36.194Z,-3.38
2018-12-31T08:44:21.735Z,-3.42
2018-12-31T08:46:53.664Z,-3.28
2018-12-31T08:49:29.940Z,-3.22
2018-12-31T08:52:04.016Z,-3.18
2018-12-31T08:54:44.697Z,-3.06
2018-12-31T08:57:18.379Z,-2.91
2018-12-31T08:59:55.413Z,-2.83
2018-12-31T09:02:29.638Z,-2.87
2018-12-31T09:05:02.368Z,-2.78
2018-12-31T09:07:34.605Z,-2.69
2018-12-31T09:10:14.708Z,-2.60
2018-12-31T09:12:47.230Z,-2.66
2018-12-31T09:15:37.944Z,-2.61
2018-12-31T09:18:17.791Z,-2.55
2018-12-31T09:20:56.748Z,-2.54
2018-12-31T09:23:33.196Z,-2.62
2018-12-31T09:26:08.967Z,-2.58
2018-12-31T09:28:40.691Z,-2.56
2018-12-31T09:31:21.527Z,-2.41
2018-12-31T09:34:08.627Z,-2.27
2018-12-31T09:36:44.080Z,-2.15
2018-12-31T09:39:21.486Z,-2.01
2018-12-31T09:41:58.391Z,-1.81
2018-12-31T09:44:31.104Z,-1.78
2018-12-31T09:47:05.476Z,-1.69
2018-12-31T09:49:50.406Z,-1.56
2018-12-31T09:52:39.519Z,-1.49
2018-12-31T09:55:52.744Z,-1.27
2018-12-31T09:58:30.474Z,-1.10
2018-12-31T10:01:10.921Z,-1.60
2018-12-31T10:04:09.082Z,-1.06
2018-12-31T10:09:41.205Z,-1.14
2018-12-31T10:12:18.364Z,-1.34
2018-12-31T10:14:56.221Z,-1.39
2018-12-31T10:17:36.070Z,-1.42
2018-12-31T10:20:15.550Z,-1.41
2018-12-31T10:22:50.432Z,-1.43
2018-12-31T10:25:30.323Z,-1.41
2018-12-31T10:28:09.512Z,-1.52
2018-12-31T10:30:43.493Z,-1.54
2018-12-31T10:33:20.537Z,-1.52
2018-12-31T10:35:54.845Z,-2.15
2018-12-31T10:38:32.925Z,-1.53
2018-12-31T10:41:18.205Z,-1.58
2018-12-31T10:43:55.527Z,-1.64
2018-12-31T10:46:28.936Z,-1.73
2018-12-31T10:49:05.172Z,-2.35
2018-12-31T10:51:38.803Z,-1.72
2018-12-31T10:54:31.383Z,-1.86
2018-12-31T10:57:12.106Z,-1.92
2018-12-31T11:00:02.786Z,-1.90
2018-12-31T11:02:42.487Z,-1.91
2018-12-31T11:05:21.387Z,-1.88
2018-12-31T11:08:13.565Z,-1.89
2018-12-31T11:10:47.846Z,-1.88
2018-12-31T11:13:28.275Z,-1.85
2018-12-31T11:16:05.725Z,-2.35
2018-12-31T11:21:36.493Z,-1.77
2018-12-31T11:24:08.508Z,-1.73
2018-12-31T11:26:48.778Z,-1.74
2018-12-31T11:29:19.736Z,-1.70
2018-12-31T11:31:54.098Z,-1.65
2018-12-31T11:34:31.515Z,-1.60
2018-12-31T11:37:34.738Z,-1.55
2018-12-31T11:42:50.551Z,-1.44
2018-12-31T11:45:49.344Z,-1.50
2018-12-31T11:48:32.583Z,-1.40
2018-12-31T11:51:14.922Z,-1.45
2018-12-31T11:54:18.015Z,-1.38
2018-12-31T11:57:12.057Z,-1.27
2018-12-31T11:59:52.376Z,-1.31
2018-12-31T12:02:57.347Z,-1.23
2018-12-31T12:05:37.202Z,-1.18
2018-12-31T12:11:30.723Z,-1.07
2018-12-31T12:15:37.282Z,-1.05
2018-12-31T12:18:31.550Z,-1.04
2018-12-31T12:22:11.492Z,-0.99
2018-12-31T12:25:48.722Z,-0.95
2018-12-31T12:27:52.704Z,-1.02
2018-12-31T12:30:42.847Z,-0.87
2018-12-31T12:38:01.500Z,-0.76
2018-12-31T12:49:30.832Z,-0.63
2018-12-31T12:51:59.324Z,-0.60
2018-12-31T12:54:54.497Z,-0.57
2018-12-31T12:57:41.867Z,-0.52
2018-12-31T13:00:39.498Z,-0.49
2018-12-31T13:03:47.061Z,-0.48
2018-12-31T13:06:49.001Z,-0.44
2018-12-31T13:09:33.432Z,-0.34
2018-12-31T13:34:17.145Z,-0.19
2018-12-31T13:36:47.476Z,-0.16
2018-12-31T13:39:18.271Z,-0.17
2018-12-31T13:41:48.883Z,-0.19
2018-12-31T13:44:21.135Z,-0.18
2018-12-31T13:46:51.478Z,-0.11
2018-12-31T13:49:22.269Z,-0.11
2018-12-31T13:52:11.871Z,-0.14
2018-12-31T13:55:01.327Z,-0.09
2018-12-31T14:00:40.253Z,0.03
2018-12-31T14:03:17.046Z,0.04
2018-12-31T14:06:11.263Z,-0.02
2018-12-31T14:08:41.594Z,0.04
2018-12-31T14:11:11.946Z,0.03
2018-12-31T14:13:42.431Z,0.09
2018-12-31T14:16:19.821Z,0.06
2018-12-31T14:18:50.197Z,0.11
2018-12-31T14:21:20.680Z,0.10
2018-12-31T14:23:50.938Z,0.11
2018-12-31T14:26:21.257Z,0.16
2018-12-31T14:28:53.720Z,0.17
2018-12-31T14:31:43.365Z,0.16
2018-12-31T14:34:32.840Z,0.19
2018-12-31T14:37:03.166Z,0.14
2018-12-31T14:39:33.599Z,0.24
2018-12-31T14:42:03.937Z,0.29
2018-12-31T14:44:34.619Z,0.26
2018-12-31T14:47:04.940Z,0.26
2018-12-31T14:49:35.563Z,0.30
2018-12-31T14:52:06.222Z,0.35
2018-12-31T14:54:36.514Z,0.38
2018-12-31T14:57:07.022Z,0.43
2018-12-31T15:02:41.003Z,0.43
2018-12-31T15:08:08.672Z,0.49
2018-12-31T15:09:31.690Z,0.51
2018-12-31T15:11:00.473Z,0.49
2018-12-31T15:13:32.912Z,0.50
2018-12-31T15:16:18.218Z,0.49
2018-12-31T15:18:44.608Z,0.50
2018-12-31T15:21:15.101Z,0.55
2018-12-31T15:23:47.139Z,0.53
2018-12-31T15:26:17.644Z,0.46
2018-12-31T15:28:48.032Z,0.50
2018-12-31T15:31:18.556Z,0.55
2018-12-31T15:33:48.908Z,0.58
2018-12-31T15:36:27.606Z,0.51
2018-12-31T15:38:58.170Z,0.49
2018-12-31T15:41:28.389Z,0.54
2018-12-31T15:43:58.759Z,0.53
2018-12-31T15:46:44.010Z,0.54
2018-12-31T15:49:12.173Z,0.56
2018-12-31T15:51:42.750Z,0.50
2018-12-31T15:54:13.091Z,0.50
2018-12-31T15:56:43.383Z,0.57
2018-12-31T15:59:13.890Z,0.58
2018-12-31T16:01:44.209Z,0.53
2018-12-31T16:04:14.526Z,0.57
2018-12-31T16:06:57.851Z,0.55
2018-12-31T16:09:28.169Z,0.52
2018-12-31T16:11:58.505Z,0.50
2018-12-31T16:14:28.833Z,0.55
2018-12-31T16:17:05.328Z,0.49
2018-12-31T16:19:35.664Z,0.57
2018-12-31T16:22:05.975Z,0.60
2018-12-31T16:24:36.579Z,0.62
2018-12-31T16:27:06.905Z,0.63
2018-12-31T16:29:37.216Z,0.67
2018-12-31T16:32:13.328Z,0.64
2018-12-31T16:34:48.050Z,0.68
2018-12-31T16:37:18.308Z,0.69
2018-12-31T16:39:48.566Z,0.74
2018-12-31T16:42:18.966Z,0.79
2018-12-31T16:44:49.292Z,0.74
2018-12-31T16:47:41.134Z,0.79
2018-12-31T16:50:11.518Z,0.80
2018-12-31T16:52:41.833Z,0.81
2018-12-31T16:55:12.298Z,0.81
2018-12-31T16:57:42.904Z,0.85
2018-12-31T17:00:23.705Z,0.83
2018-12-31T17:02:54.190Z,0.83
2018-12-31T17:05:24.512Z,0.79
2018-12-31T17:07:56.336Z,0.84
2018-12-31T17:10:26.953Z,0.82
2018-12-31T17:12:59.018Z,0.86
2018-12-31T17:15:36.103Z,0.82
2018-12-31T17:18:25.519Z,0.84
2018-12-31T17:20:55.860Z,0.86
2018-12-31T17:23:28.837Z,0.86
2018-12-31T17:25:59.431Z,0.78
2018-12-31T17:28:42.339Z,0.83
2018-12-31T17:31:14.941Z,0.86
2018-12-31T17:33:45.297Z,0.83
2018-12-31T17:36:15.591Z,0.82
2018-12-31T17:38:45.922Z,0.83
2018-12-31T17:41:16.238Z,0.92
2018-12-31T17:43:46.533Z,0.92
2018-12-31T17:46:29.976Z,0.97
2018-12-31T17:49:00.444Z,0.95
2018-12-31T17:51:30.788Z,0.93
2018-12-31T17:54:01.231Z,0.98
2018-12-31T17:56:31.596Z,1.01
2018-12-31T17:59:43.639Z,1.03
2018-12-31T18:02:12.210Z,1.02
2018-12-31T18:04:53.716Z,1.04
2018-12-31T18:07:25.652Z,1.06
2018-12-31T18:09:56.013Z,1.10
2018-12-31T18:12:26.276Z,1.11
2018-12-31T18:15:26.851Z,1.08
2018-12-31T18:18:06.673Z,1.15
2018-12-31T18:20:45.856Z,1.12
2018-12-31T18:23:47.677Z,1.14
2018-12-31T18:26:35.642Z,1.17
2018-12-31T18:29:31.016Z,1.18
2018-12-31T18:32:18.402Z,1.20
2018-12-31T18:34:58.902Z,1.14
2018-12-31T18:37:58.831Z,1.17
2018-12-31T18:40:35.539Z,1.18
2018-12-31T18:43:37.874Z,1.27
2018-12-31T18:46:27.537Z,1.26
2018-12-31T18:49:20.829Z,1.26
2018-12-31T18:52:03.025Z,1.24
2018-12-31T18:54:36.063Z,1.32
2018-12-31T18:57:13.296Z,1.29
2018-12-31T18:59:56.001Z,1.40
2018-12-31T19:02:41.792Z,1.44
2018-12-31T19:05:11.237Z,1.45
2018-12-31T19:08:12.114Z,1.48
2018-12-31T19:11:22.322Z,1.43
2018-12-31T19:14:00.197Z,1.55
2018-12-31T19:16:39.895Z,1.55
2018-12-31T19:19:17.584Z,1.56
2018-12-31T19:21:55.592Z,1.60
2018-12-31T19:24:39.452Z,1.62
2018-12-31T19:27:14.643Z,1.63
2018-12-31T19:29:45.569Z,1.67
2018-12-31T19:32:21.367Z,1.58
2018-12-31T19:34:57.702Z,1.69
2018-12-31T19:37:40.113Z,1.70
2018-12-31T19:40:18.544Z,1.71
2018-12-31T19:42:53.733Z,1.39
2018-12-31T19:45:29.045Z,1.74
2018-12-31T19:48:03.514Z,1.77
2018-12-31T19:50:40.326Z,1.80
2018-12-31T19:53:09.987Z,1.80
2018-12-31T19:55:44.645Z,1.84
2018-12-31T20:01:00.929Z,1.39
2018-12-31T20:03:34.631Z,1.89
2018-12-31T20:06:11.101Z,1.89
2018-12-31T20:09:00.336Z,1.86
2018-12-31T20:11:46.463Z,1.98
2018-12-31T20:14:17.573Z,2.00
2018-12-31T20:16:50.840Z,1.99
2018-12-31T20:19:54.611Z,2.00
2018-12-31T20:22:54.588Z,2.04
2018-12-31T20:25:32.347Z,2.08
2018-12-31T20:32:08.145Z,2.15
2018-12-31T20:34:54.477Z,2.24
2018-12-31T20:37:58.091Z,2.28
2018-12-31T20:52:18.149Z,2.42
2018-12-31T20:59:26.467Z,2.52
2018-12-31T21:02:49.271Z,2.14
2018-12-31T21:06:20.093Z,2.57
2018-12-31T21:09:53.164Z,2.56
2018-12-31T21:13:20.320Z,2.60
2018-12-31T21:17:07.532Z,2.65
2018-12-31T21:23:29.229Z,2.78
2018-12-31T21:26:29.954Z,2.81
2018-12-31T21:29:01.962Z,2.79
2018-12-31T21:34:29.879Z,2.92
2018-12-31T21:37:00.472Z,2.94
2018-12-31T21:39:30.948Z,2.99
2018-12-31T21:42:01.416Z,3.02
2018-12-31T21:44:32.198Z,2.98
2018-12-31T21:47:06.164Z,2.98
2018-12-31T21:49:36.550Z,3.01
2018-12-31T21:52:06.902Z,2.89
2018-12-31T21:54:37.727Z,3.08
2018-12-31T21:59:53.367Z,3.08
2018-12-31T22:02:27.489Z,3.10
2018-12-31T22:04:58.220Z,3.15
2018-12-31T22:07:29.191Z,3.16
2018-12-31T22:10:02.049Z,3.16
2018-12-31T22:12:32.428Z,3.21
2018-12-31T22:15:32.635Z,3.22
2018-12-31T22:18:12.030Z,3.22
2018-12-31T22:20:42.770Z,3.27
2018-12-31T22:23:13.435Z,3.26
2018-12-31T22:29:24.011Z,3.27
2018-12-31T22:31:59.109Z,3.28
2018-12-31T22:34:30.247Z,3.35
2018-12-31T22:37:36.127Z,3.38
2018-12-31T22:40:02.108Z,3.41
2018-12-31T22:45:25.220Z,3.43
2018-12-31T22:47:56.483Z,3.38
2018-12-31T22:50:26.843Z,3.41
2018-12-31T22:58:13.808Z,3.54
2018-12-31T23:03:50.741Z,3.53
2018-12-31T23:06:21.573Z,3.58
2018-12-31T23:08:52.011Z,3.65
2018-12-31T23:11:22.482Z,3.63
2018-12-31T23:13:53.436Z,3.63
2018-12-31T23:16:26.286Z,3.73
2018-12-31T23:18:56.786Z,3.78
2018-12-31T23:21:46.508Z,3.74
2018-12-31T23:24:29.315Z,3.73
2018-12-31T23:26:58.157Z,3.80
2018-12-31T23:29:40.307Z,3.75
2018-12-31T23:32:12.969Z,3.75
2018-12-31T23:34:43.337Z,3.84
2018-12-31T23:42:44.306Z,3.96
2018-12-31T23:48:27.087Z,3.96
2018-12-31T23:50:58.784Z,3.98
2018-12-31T23:53:29.319Z,4.08
2018-12-31T23:55:59.772Z,4.09
2018-12-31T23:58:30.086Z,4.12
